createdAt,value
2022-08-29T00:02:05.536Z,48.48
2022-08-29T00:04:49.529Z,48.80
2022-08-29T00:07:35.427Z,48.69
2022-08-29T00:10:19.661Z,48.97
2022-08-29T00:13:06.723Z,48.58
2022-08-29T00:15:50.634Z,48.58
2022-08-29T00:18:34.901Z,48.15
2022-08-29T00:21:18.778Z,48.07
2022-08-29T00:24:04.617Z,47.84
2022-08-29T00:26:48.586Z,48.05
2022-08-29T00:29:32.399Z,48.35
2022-08-29T00:32:16.299Z,48.37
2022-08-29T00:35:00.153Z,48.11
2022-08-29T00:37:45.116Z,48.27
2022-08-29T00:40:33.851Z,48.91
2022-08-29T00:43:19.608Z,48.30
2022-08-29T00:46:13.169Z,48.54
2022-08-29T00:49:00.334Z,48.37
2022-08-29T00:51:44.442Z,48.63
2022-08-29T00:54:28.497Z,48.50
2022-08-29T00:57:14.380Z,48.46
2022-08-29T00:59:58.939Z,48.64
2022-08-29T01:02:43.490Z,47.77
2022-08-29T01:05:27.785Z,48.00
2022-08-29T01:08:11.819Z,47.75
2022-08-29T01:11:13.626Z,48.11
2022-08-29T01:14:01.330Z,48.31
2022-08-29T01:16:47.106Z,49.02
2022-08-29T01:19:44.194Z,48.85
2022-08-29T01:22:40.993Z,48.50
2022-08-29T01:25:28.691Z,48.34
2022-08-29T01:28:17.250Z,48.60
2022-08-29T01:31:06.459Z,49.18
2022-08-29T01:33:54.459Z,48.89
2022-08-29T01:36:42.946Z,48.84
2022-08-29T01:39:29.264Z,48.67
2022-08-29T01:42:19.126Z,48.64
2022-08-29T01:45:03.305Z,48.87
2022-08-29T01:47:47.318Z,49.25
2022-08-29T01:50:32.983Z,49.11
2022-08-29T01:53:17.626Z,49.04
2022-08-29T01:56:09.484Z,49.09
2022-08-29T01:58:56.445Z,49.68
2022-08-29T02:01:43.348Z,49.43
2022-08-29T02:04:27.502Z,49.45
2022-08-29T02:07:12.826Z,50.00
2022-08-29T02:09:56.912Z,50.20
2022-08-29T02:12:41.013Z,50.54
2022-08-29T02:15:26.349Z,49.56
2022-08-29T02:18:10.349Z,49.17
2022-08-29T02:20:54.184Z,49.08
2022-08-29T02:23:39.848Z,48.89
2022-08-29T02:26:24.053Z,49.23
2022-08-29T02:29:09.734Z,49.37
2022-08-29T02:31:55.403Z,49.30
2022-08-29T02:34:40.068Z,49.29
2022-08-29T02:37:27.976Z,49.27
2022-08-29T02:40:12.300Z,49.15
2022-08-29T02:42:57.028Z,49.09
2022-08-29T02:45:43.537Z,48.16
2022-08-29T02:48:28.957Z,48.28
2022-08-29T02:51:19.438Z,47.95
2022-08-29T02:54:03.911Z,48.10
2022-08-29T02:56:47.742Z,47.80
2022-08-29T02:59:31.595Z,47.17
2022-08-29T03:02:15.648Z,47.78
2022-08-29T03:05:01.144Z,47.97
2022-08-29T03:07:50.805Z,47.89
2022-08-29T03:10:36.712Z,48.62
2022-08-29T03:13:20.547Z,49.19
2022-08-29T03:16:05.933Z,49.24
2022-08-29T03:18:50.153Z,49.05
2022-08-29T03:21:35.500Z,48.93
2022-08-29T03:24:26.356Z,49.25
2022-08-29T03:27:11.097Z,48.78
2022-08-29T03:29:54.925Z,48.60
2022-08-29T03:32:39.172Z,49.60
2022-08-29T03:35:23.365Z,49.57
2022-08-29T03:38:08.847Z,49.81
2022-08-29T03:40:53.521Z,50.74
2022-08-29T03:43:42.239Z,51.36
2022-08-29T03:46:27.178Z,51.53
2022-08-29T03:49:11.331Z,50.99
2022-08-29T03:51:55.600Z,51.13
2022-08-29T03:54:40.780Z,50.95
2022-08-29T03:57:25.029Z,50.51
2022-08-29T04:00:12.326Z,50.89
2022-08-29T04:02:58.358Z,50.77
2022-08-29T04:05:42.983Z,50.86
2022-08-29T04:08:26.922Z,50.90
2022-08-29T04:11:13.706Z,50.92
2022-08-29T04:13:57.522Z,51.70
2022-08-29T04:16:41.445Z,51.42
2022-08-29T04:19:25.300Z,51.17
2022-08-29T04:22:09.505Z,51.23
2022-08-29T04:24:53.475Z,51.45
2022-08-29T04:27:39.284Z,52.55
2022-08-29T04:30:24.978Z,52.48
2022-08-29T04:33:08.932Z,52.64
2022-08-29T04:36:00.219Z,52.76
2022-08-29T04:38:44.251Z,52.45
2022-08-29T04:41:28.171Z,52.07
2022-08-29T04:44:14.429Z,51.72
2022-08-29T04:46:58.414Z,51.25
2022-08-29T04:49:42.537Z,50.70
2022-08-29T04:52:28.211Z,51.04
2022-08-29T04:55:13.154Z,51.07
2022-08-29T04:57:57.542Z,50.61
2022-08-29T05:00:42.753Z,49.82
2022-08-29T05:03:26.767Z,49.25
2022-08-29T05:06:14.350Z,48.65
2022-08-29T05:08:59.047Z,48.13
2022-08-29T05:11:43.942Z,48.13
2022-08-29T05:14:27.984Z,48.20
2022-08-29T05:17:14.410Z,46.80
2022-08-29T05:19:58.614Z,45.02
2022-08-29T05:22:43.463Z,44.26
2022-08-29T05:25:27.600Z,44.26
2022-08-29T05:28:12.324Z,43.92
2022-08-29T05:30:56.557Z,43.46
2022-08-29T05:33:41.915Z,43.49
2022-08-29T05:36:25.953Z,43.34
2022-08-29T05:39:09.855Z,42.93
2022-08-29T05:41:58.531Z,43.08
2022-08-29T05:44:42.328Z,42.99
2022-08-29T05:47:26.629Z,42.96
2022-08-29T05:50:13.764Z,42.01
2022-08-29T05:52:57.733Z,42.21
2022-08-29T05:55:42.081Z,42.02
2022-08-29T05:58:26.587Z,41.96
2022-08-29T06:01:10.381Z,41.80
2022-08-29T06:03:55.118Z,41.40
2022-08-29T06:06:42.508Z,42.90
2022-08-29T06:09:26.548Z,42.76
2022-08-29T06:12:12.063Z,42.69
2022-08-29T06:14:56.072Z,42.27
2022-08-29T06:17:40.282Z,42.12
2022-08-29T06:20:24.533Z,41.64
2022-08-29T06:23:10.153Z,41.27
2022-08-29T06:25:57.354Z,41.19
2022-08-29T06:28:46.061Z,41.11
2022-08-29T06:31:30.237Z,41.94
2022-08-29T06:34:14.456Z,41.95
2022-08-29T06:36:59.633Z,41.42
2022-08-29T06:39:45.211Z,41.36
2022-08-29T06:42:29.274Z,41.02
2022-08-29T06:45:13.301Z,41.29
2022-08-29T06:47:57.353Z,40.61
2022-08-29T06:50:45.543Z,40.18
2022-08-29T06:53:32.313Z,39.59
2022-08-29T06:56:19.163Z,40.20
2022-08-29T06:59:03.262Z,40.45
2022-08-29T07:01:48.516Z,40.42
2022-08-29T07:04:34.115Z,39.82
2022-08-29T07:07:19.289Z,40.21
2022-08-29T07:10:03.451Z,40.24
2022-08-29T07:12:49.075Z,39.89
2022-08-29T07:15:33.119Z,40.06
2022-08-29T07:18:17.335Z,40.07
2022-08-29T07:21:01.404Z,40.07
2022-08-29T07:23:46.284Z,39.78
2022-08-29T07:26:33.253Z,38.98
2022-08-29T07:29:21.517Z,38.44
2022-08-29T07:32:05.586Z,38.15
2022-08-29T07:34:54.058Z,38.65
2022-08-29T07:37:39.844Z,37.89
2022-08-29T07:40:23.962Z,37.33
2022-08-29T07:43:07.866Z,37.56
2022-08-29T07:45:53.194Z,37.61
2022-08-29T07:48:37.519Z,37.72
2022-08-29T07:51:24.106Z,37.51
2022-08-29T07:54:07.995Z,37.30
2022-08-29T07:56:53.738Z,37.56
2022-08-29T07:59:37.650Z,36.63
2022-08-29T08:02:23.122Z,36.05
2022-08-29T08:05:08.003Z,36.39
2022-08-29T08:07:55.678Z,36.12
2022-08-29T08:10:40.501Z,35.63
2022-08-29T08:13:28.127Z,34.66
2022-08-29T08:16:14.524Z,33.69
2022-08-29T08:19:00.118Z,34.11
2022-08-29T08:21:49.909Z,34.40
2022-08-29T08:24:34.143Z,33.11
2022-08-29T08:27:17.986Z,31.73
2022-08-29T08:30:01.861Z,32.64
2022-08-29T08:32:49.558Z,29.75
2022-08-29T08:35:42.001Z,31.05
2022-08-29T08:38:26.186Z,32.50
2022-08-29T08:41:26.426Z,32.04
2022-08-29T08:44:30.001Z,32.45
2022-08-29T08:47:26.959Z,31.41
2022-08-29T08:50:18.486Z,30.71
2022-08-29T08:53:11.978Z,30.15
2022-08-29T08:56:00.011Z,30.19
2022-08-29T08:58:52.291Z,30.33
2022-08-29T09:01:40.888Z,30.22
2022-08-29T09:04:55.079Z,29.32
2022-08-29T09:07:51.229Z,29.48
2022-08-29T09:10:44.683Z,28.85
2022-08-29T09:13:38.660Z,30.27
2022-08-29T09:16:27.911Z,28.82
2022-08-29T09:19:17.261Z,28.21
2022-08-29T09:22:10.744Z,28.94
2022-08-29T09:24:59.166Z,27.66
2022-08-29T09:27:44.954Z,28.76
2022-08-29T09:30:31.280Z,27.68
2022-08-29T09:33:19.111Z,28.29
2022-08-29T09:36:04.752Z,27.55
2022-08-29T09:38:48.609Z,26.93
2022-08-29T09:41:32.440Z,26.92
2022-08-29T09:44:23.934Z,27.36
2022-08-29T09:47:12.563Z,26.60
2022-08-29T09:50:08.276Z,26.36
2022-08-29T09:52:53.905Z,25.74
2022-08-29T09:55:42.550Z,26.56
2022-08-29T09:58:34.243Z,27.62
2022-08-29T10:01:27.605Z,28.79
2022-08-29T10:04:13.477Z,28.94
2022-08-29T10:07:10.704Z,30.81
2022-08-29T10:10:01.528Z,30.94
2022-08-29T10:12:53.064Z,31.19
2022-08-29T10:15:51.371Z,31.42
2022-08-29T10:18:46.023Z,30.76
2022-08-29T10:21:37.233Z,31.05
2022-08-29T10:24:31.390Z,30.69
2022-08-29T10:27:28.679Z,30.69
2022-08-29T10:30:16.180Z,31.92
2022-08-29T10:33:19.634Z,31.82
2022-08-29T10:36:13.396Z,30.98
2022-08-29T10:39:04.168Z,32.05
2022-08-29T10:41:57.352Z,30.11
2022-08-29T10:44:53.754Z,28.53
2022-08-29T10:47:41.928Z,29.54
2022-08-29T10:50:44.241Z,29.05
2022-08-29T10:53:38.289Z,28.97
2022-08-29T10:56:25.900Z,30.24
2022-08-29T10:59:23.154Z,30.53
2022-08-29T11:02:12.301Z,31.09
2022-08-29T11:05:00.715Z,30.91
2022-08-29T11:07:50.604Z,30.70
2022-08-29T11:10:41.486Z,31.47
2022-08-29T11:13:30.523Z,32.21
2022-08-29T11:16:19.703Z,31.56
2022-08-29T11:19:10.484Z,31.96
2022-08-29T11:22:00.237Z,34.04
2022-08-29T11:24:47.333Z,33.10
2022-08-29T11:27:40.225Z,32.13
2022-08-29T11:30:29.552Z,31.67
2022-08-29T11:33:23.990Z,30.19
2022-08-29T11:36:29.282Z,29.02
2022-08-29T11:39:38.361Z,29.33
2022-08-29T11:45:37.552Z,29.29
2022-08-29T11:48:34.740Z,29.01
2022-08-29T11:51:31.975Z,28.03
2022-08-29T11:54:52.204Z,27.66
2022-08-29T11:57:58.306Z,28.39
2022-08-29T12:00:51.436Z,29.22
2022-08-29T12:03:57.588Z,31.03
2022-08-29T12:07:01.245Z,30.47
2022-08-29T12:09:51.614Z,32.09
2022-08-29T12:12:47.523Z,32.19
2022-08-29T12:15:54.806Z,31.08
2022-08-29T12:18:48.830Z,31.42
2022-08-29T12:21:48.875Z,32.01
2022-08-29T12:24:41.853Z,31.16
2022-08-29T12:28:01.310Z,30.77
2022-08-29T12:30:48.898Z,31.28
2022-08-29T12:33:47.357Z,31.73
2022-08-29T12:36:51.951Z,29.67
2022-08-29T12:40:01.744Z,30.33
2022-08-29T12:43:03.397Z,31.62
2022-08-29T12:45:50.483Z,33.07
2022-08-29T12:48:42.429Z,31.78
2022-08-29T12:51:34.830Z,32.22
2022-08-29T12:54:32.628Z,31.50
2022-08-29T12:57:20.249Z,31.82
2022-08-29T13:00:12.644Z,29.96
2022-08-29T13:03:00.797Z,29.10
2022-08-29T13:05:46.844Z,31.26
2022-08-29T13:08:33.369Z,31.88
2022-08-29T13:11:21.795Z,31.50
2022-08-29T13:14:08.933Z,32.60
2022-08-29T13:16:53.005Z,30.73
2022-08-29T13:19:37.016Z,31.98
2022-08-29T13:22:22.336Z,31.66
2022-08-29T13:25:07.175Z,32.20
2022-08-29T13:28:01.574Z,31.87
2022-08-29T13:30:48.898Z,31.54
2022-08-29T13:33:35.022Z,29.94
2022-08-29T13:36:38.288Z,30.51
2022-08-29T13:39:27.431Z,32.08
2022-08-29T13:42:16.729Z,32.24
2022-08-29T13:45:15.303Z,29.92
2022-08-29T13:48:20.458Z,30.19
2022-08-29T13:51:06.706Z,29.79
2022-08-29T13:53:53.209Z,29.45
2022-08-29T13:56:38.669Z,29.88
2022-08-29T13:59:25.989Z,31.17
2022-08-29T14:02:11.319Z,31.51
2022-08-29T14:04:55.556Z,31.29
2022-08-29T14:07:39.537Z,31.00
2022-08-29T14:10:23.503Z,31.18
2022-08-29T14:13:08.869Z,30.60
2022-08-29T14:15:52.915Z,32.11
2022-08-29T14:18:36.897Z,31.31
2022-08-29T14:21:20.920Z,31.28
2022-08-29T14:24:05.353Z,30.88
2022-08-29T14:26:49.453Z,31.00
2022-08-29T14:29:45.158Z,31.61
2022-08-29T14:32:29.252Z,31.07
2022-08-29T14:35:26.182Z,31.04
2022-08-29T14:38:11.869Z,31.61
2022-08-29T14:40:56.086Z,30.74
2022-08-29T14:43:40.835Z,30.81
2022-08-29T14:46:26.922Z,29.54
2022-08-29T14:49:11.275Z,28.72
2022-08-29T14:51:55.253Z,28.67
2022-08-29T14:54:39.229Z,29.14
2022-08-29T14:57:23.300Z,29.29
2022-08-29T15:00:09.847Z,28.71
2022-08-29T15:02:55.752Z,29.11
2022-08-29T15:05:39.940Z,29.12
2022-08-29T15:08:24.040Z,29.40
2022-08-29T15:11:08.338Z,29.06
2022-08-29T15:13:52.465Z,29.95
2022-08-29T15:16:36.573Z,31.24
2022-08-29T15:20:18.125Z,30.59
2022-08-29T15:22:27.612Z,30.12
2022-08-29T15:25:11.600Z,31.04
2022-08-29T15:27:55.973Z,31.39
2022-08-29T15:30:40.490Z,31.94
2022-08-29T15:33:25.333Z,30.62
2022-08-29T15:36:11.262Z,32.48
2022-08-29T15:38:55.441Z,32.28
2022-08-29T15:41:39.582Z,33.31
2022-08-29T15:44:23.678Z,33.89
2022-08-29T15:47:10.537Z,34.57
2022-08-29T15:49:55.280Z,33.92
2022-08-29T15:52:40.750Z,33.43
2022-08-29T15:55:24.799Z,34.15
2022-08-29T15:58:08.768Z,34.64
2022-08-29T16:00:53.098Z,35.96
2022-08-29T16:03:37.360Z,38.47
2022-08-29T16:06:21.217Z,37.72
2022-08-29T16:09:15.697Z,38.64
2022-08-29T16:11:59.923Z,38.98
2022-08-29T16:14:58.934Z,40.44
2022-08-29T16:17:43.345Z,40.91
2022-08-29T16:20:27.229Z,41.94
2022-08-29T16:23:11.514Z,41.66
2022-08-29T16:25:57.069Z,42.28
2022-08-29T16:28:41.391Z,42.40
2022-08-29T16:31:25.691Z,42.96
2022-08-29T16:34:09.758Z,44.05
2022-08-29T16:36:56.862Z,43.66
2022-08-29T16:39:40.802Z,43.55
2022-08-29T16:42:30.312Z,43.46
2022-08-29T16:45:16.247Z,44.54
2022-08-29T16:48:00.882Z,45.15
2022-08-29T16:50:44.999Z,44.13
2022-08-29T16:53:28.859Z,43.83
2022-08-29T16:56:15.764Z,43.67
2022-08-29T16:59:01.842Z,44.11
2022-08-29T17:01:48.654Z,44.12
2022-08-29T17:04:32.850Z,43.86
2022-08-29T17:07:17.292Z,44.24
2022-08-29T17:10:02.259Z,44.66
2022-08-29T17:12:46.147Z,44.52
2022-08-29T17:15:30.177Z,43.76
2022-08-29T17:18:14.062Z,43.73
2022-08-29T17:20:59.915Z,43.60
2022-08-29T17:23:44.889Z,44.74
2022-08-29T17:26:29.351Z,43.97
2022-08-29T17:29:14.008Z,45.06
2022-08-29T17:31:59.256Z,45.65
2022-08-29T17:34:44.162Z,44.81
2022-08-29T17:37:29.510Z,45.60
2022-08-29T17:40:20.482Z,46.23
2022-08-29T17:43:05.878Z,45.95
2022-08-29T17:45:49.742Z,46.03
2022-08-29T17:48:35.088Z,46.38
2022-08-29T17:51:19.007Z,47.11
2022-08-29T17:54:04.480Z,46.29
2022-08-29T17:56:51.035Z,46.25
2022-08-29T17:59:36.908Z,45.84
2022-08-29T18:02:20.868Z,45.18
2022-08-29T18:05:10.241Z,46.85
2022-08-29T18:07:54.195Z,46.99
2022-08-29T18:10:39.869Z,45.99
2022-08-29T18:13:24.421Z,46.05
2022-08-29T18:16:11.567Z,45.33
2022-08-29T18:18:56.254Z,44.98
2022-08-29T18:21:43.312Z,43.65
2022-08-29T18:24:27.317Z,42.91
2022-08-29T18:27:11.364Z,42.83
2022-08-29T18:29:57.781Z,42.83
2022-08-29T18:32:42.572Z,43.28
2022-08-29T18:35:26.642Z,43.02
2022-08-29T18:38:11.901Z,44.12
2022-08-29T18:40:56.086Z,44.49
2022-08-29T18:43:39.888Z,46.11
2022-08-29T18:46:23.825Z,45.63
2022-08-29T18:49:08.253Z,46.16
2022-08-29T18:51:55.573Z,45.15
2022-08-29T18:54:41.421Z,45.73
2022-08-29T18:57:25.301Z,45.78
2022-08-29T19:00:11.256Z,46.36
2022-08-29T19:02:56.452Z,46.07
2022-08-29T19:05:43.746Z,46.76
2022-08-29T19:08:27.664Z,46.29
2022-08-29T19:11:14.023Z,45.42
2022-08-29T19:13:58.054Z,45.27
2022-08-29T19:16:42.364Z,44.72
2022-08-29T19:19:26.318Z,45.34
2022-08-29T19:22:11.712Z,46.39
2022-08-29T19:24:55.719Z,46.27
2022-08-29T19:27:44.068Z,46.24
2022-08-29T19:30:28.536Z,46.61
2022-08-29T19:33:15.346Z,47.00
2022-08-29T19:35:59.410Z,47.71
2022-08-29T19:38:43.203Z,47.64
2022-08-29T19:41:27.562Z,47.08
2022-08-29T19:44:12.789Z,46.87
2022-08-29T19:46:58.339Z,46.50
2022-08-29T19:49:45.377Z,46.09
2022-08-29T19:52:29.561Z,46.09
2022-08-29T19:55:17.763Z,46.54
2022-08-29T19:58:01.798Z,46.53
2022-08-29T20:00:52.134Z,46.23
2022-08-29T20:03:39.551Z,46.73
2022-08-29T20:06:24.388Z,47.45
2022-08-29T20:09:08.788Z,47.06
2022-08-29T20:11:52.661Z,46.71
2022-08-29T20:14:37.213Z,46.52
2022-08-29T20:17:22.560Z,46.51
2022-08-29T20:20:11.813Z,45.52
2022-08-29T20:22:55.930Z,45.43
2022-08-29T20:25:39.840Z,44.35
2022-08-29T20:28:23.749Z,44.73
2022-08-29T20:31:08.002Z,43.56
2022-08-29T20:33:53.513Z,42.57
2022-08-29T20:36:54.843Z,43.47
2022-08-29T20:39:39.518Z,42.61
2022-08-29T20:42:25.432Z,41.62
2022-08-29T20:45:10.322Z,41.47
2022-08-29T20:47:54.294Z,41.50
2022-08-29T20:50:39.866Z,41.45
2022-08-29T20:53:32.013Z,40.71
2022-08-29T20:56:17.003Z,40.84
2022-08-29T20:59:00.874Z,40.40
2022-08-29T21:01:45.235Z,39.67
2022-08-29T21:04:46.848Z,39.33
2022-08-29T21:07:32.028Z,39.52
2022-08-29T21:10:15.781Z,39.93
2022-08-29T21:13:00.121Z,39.76
2022-08-29T21:15:44.545Z,39.71
2022-08-29T21:18:28.471Z,39.61
2022-08-29T21:21:13.536Z,40.35
2022-08-29T21:23:58.819Z,40.36
2022-08-29T21:26:42.669Z,40.91
2022-08-29T21:29:26.519Z,41.23
2022-08-29T21:32:10.417Z,41.56
2022-08-29T21:34:54.305Z,41.75
2022-08-29T21:37:39.292Z,41.59
2022-08-29T21:40:26.151Z,42.34
2022-08-29T21:43:09.979Z,42.48
2022-08-29T21:45:57.298Z,42.55
2022-08-29T21:48:41.131Z,42.67
2022-08-29T21:51:25.460Z,42.50
2022-08-29T21:54:13.389Z,42.45
2022-08-29T21:56:58.989Z,42.00
2022-08-29T21:59:42.899Z,42.41
2022-08-29T22:02:27.663Z,42.45
2022-08-29T22:05:11.845Z,42.11
2022-08-29T22:07:55.929Z,42.34
2022-08-29T22:10:42.680Z,42.34
2022-08-29T22:13:28.505Z,42.06
2022-08-29T22:16:30.230Z,42.20
2022-08-29T22:19:16.302Z,42.22
2022-08-29T22:22:00.863Z,42.04
2022-08-29T22:24:44.782Z,42.26
2022-08-29T22:27:28.747Z,42.15
2022-08-29T22:30:15.754Z,42.03
2022-08-29T22:33:00.146Z,42.49
2022-08-29T22:35:45.234Z,42.35
2022-08-29T22:38:30.099Z,41.87
2022-08-29T22:41:16.027Z,41.64
2022-08-29T22:44:42.462Z,41.64
2022-08-29T22:47:08.167Z,41.74
2022-08-29T22:49:52.018Z,41.70
2022-08-29T22:52:36.197Z,41.98
2022-08-29T22:58:04.911Z,41.86
2022-08-29T23:00:48.928Z,41.94
2022-08-29T23:03:34.207Z,41.84
2022-08-29T23:06:17.992Z,42.14
2022-08-29T23:09:03.439Z,42.25
2022-08-29T23:11:48.015Z,42.42
2022-08-29T23:14:31.927Z,42.49
2022-08-29T23:17:17.356Z,42.81
2022-08-29T23:20:02.725Z,42.82
2022-08-29T23:22:48.799Z,42.22
2022-08-29T23:25:32.821Z,42.92
2022-08-29T23:28:16.845Z,43.16
2022-08-29T23:31:01.662Z,43.62
2022-08-29T23:33:45.750Z,43.85
2022-08-29T23:36:31.136Z,43.84
2022-08-29T23:39:15.072Z,43.69
2022-08-29T23:41:59.674Z,43.34
2022-08-29T23:44:43.637Z,43.35
2022-08-29T23:47:27.656Z,43.52
2022-08-29T23:50:14.322Z,43.76
2022-08-29T23:52:59.662Z,44.21
2022-08-29T23:55:44.026Z,43.69
2022-08-29T23:58:28.140Z,43.79
